F/V Oceanie — FVBW — position and weather

sailwx.info

Track history (hours):
 
Tides and Currents Weather Stations Pressure Air Temp Water Temp Dewpoint Dewpoint Depression Visibility Wind Speed Wind Dir Waves Ship Positions

F/V Oceanie

Last reported at 2017-Jul-20 02:38 UTC. Time now 2017-Jul-20 16:34 UTC.
Position N 47°23' W 003°26'.

Length 16 m.

Type: Fishing. MMSI: 228370000.

Date/timePositionNaut miles runAvg speedWind from/ knotsBaromVisibWave heightAir tempDewpointWater temp
2017-Jul-20 02:38N 47°23' W 003°26'1 9.2
2017-Jul-20 02:30N 47°25' W 003°25'4 9.1
2017-Jul-20 02:00N 47°29' W 003°24'5 8.9
2017-Jul-20 01:30N 47°34' W 003°23'4 8.9
2017-Jul-20 01:00N 47°38' W 003°22'4 8.8
2017-Jul-20 00:30N 47°42' W 003°22'1 2.5
2017-Jul-20 00:00N 47°44' W 003°22'3 5.2
2017-Jul-19 23:30N 47°41' W 003°22'4 8.6
2017-Jul-19 23:00N 47°37' W 003°22'4 8.3
2017-Jul-19 22:30N 47°33' W 003°23'5 8.8
2017-Jul-19 21:59N 47°28' W 003°24'25 1.2
2017-Jul-19 01:42N 47°03' W 003°27'1 3.9
2017-Jul-19 01:20N 47°04' W 003°29'1 4.0
2017-Jul-19 00:59N 47°04' W 003°31'2 3.9
2017-Jul-19 00:23N 47°05' W 003°34'2 4.2
2017-Jul-18 23:59N 47°07' W 003°35'2 3.2
2017-Jul-18 23:30N 47°08' W 003°37'2 3.4
2017-Jul-18 23:00N 47°09' W 003°38'3 3.7
2017-Jul-18 22:15N 47°12' W 003°38'1 3.8
2017-Jul-18 21:57N 47°13' W 003°38'2 3.8
2017-Jul-18 21:30N 47°15' W 003°39'3 3.8
2017-Jul-18 20:40N 47°18' W 003°39'1 4.4
2017-Jul-18 20:22N 47°19' W 003°39'4 8.0
2017-Jul-18 19:54N 47°22' W 003°35'4 8.7
2017-Jul-18 19:24N 47°26' W 003°32'4 8.5
2017-Jul-18 18:57N 47°29' W 003°29'4 8.9
2017-Jul-18 18:30N 47°33' W 003°25'4 8.6
2017-Jul-18 18:00N 47°36' W 003°23'4 8.6
2017-Jul-18 17:30N 47°41' W 003°22'3 6.2
2017-Jul-18 17:00N 47°44' W 003°22'0 0.0
2017-Jul-18 16:30N 47°44' W 003°22'0 0.3
2017-Jul-18 16:00N 47°44' W 003°22'0 0.0
2017-Jul-18 15:30N 47°44' W 003°22'  
2017-Jul-12 01:29N 47°44' W 003°22'0 0.0
2017-Jul-12 01:00N 47°44' W 003°22'0 0.0
2017-Jul-12 00:30N 47°44' W 003°22'1 1.6
2017-Jul-12 00:00N 47°43' W 003°22'4 9.0
2017-Jul-11 23:30N 47°38' W 003°22'4 8.3
2017-Jul-11 23:00N 47°34' W 003°24'4 8.2
2017-Jul-11 22:30N 47°31' W 003°27'4 8.4
2017-Jul-11 22:00N 47°28' W 003°31'4 8.4
2017-Jul-11 21:30N 47°24' W 003°34'4 8.3
2017-Jul-11 21:00N 47°20' W 003°37'2 2.9
2017-Jul-11 20:27N 47°19' W 003°37'1 2.9
2017-Jul-11 20:00N 47°18' W 003°36'2 2.8
2017-Jul-11 19:20N 47°16' W 003°36'1 3.4
2017-Jul-11 19:00N 47°16' W 003°35'2 3.3
2017-Jul-11 18:30N 47°18' W 003°35'2 3.8
2017-Jul-11 18:00N 47°19' W 003°38'2 3.2
2017-Jul-11 17:30N 47°19' W 003°40'1 2.2
2017-Jul-11 16:59N 47°19' W 003°42'2 4.0
2017-Jul-11 16:29N 47°21' W 003°43'1 2.7
2017-Jul-11 15:59N 47°20' W 003°42'2 3.6
2017-Jul-11 15:27N 47°18' W 003°41'2 4.1
2017-Jul-11 14:59N 47°17' W 003°43'3 4.3
2017-Jul-11 14:21N 47°16' W 003°47'1 1.5
2017-Jul-11 14:00N 47°15' W 003°47'2 3.0
2017-Jul-11 13:27N 47°17' W 003°46'2 3.5
2017-Jul-11 12:59N 47°18' W 003°48'3 2.3
2017-Jul-11 11:48N 47°16' W 003°51'1 3.7
2017-Jul-11 11:30N 47°15' W 003°49'2 3.6
2017-Jul-11 10:58N 47°15' W 003°46'4 2.8
2017-Jul-11 09:42N 47°12' W 003°44'1 3.8
2017-Jul-11 09:20N 47°13' W 003°42'1 3.4
2017-Jul-11 08:58N 47°14' W 003°40'2 3.7
2017-Jul-11 08:30N 47°15' W 003°42'2 1.2
2017-Jul-11 06:27N 47°15' W 003°46'2 3.4
2017-Jul-11 06:00N 47°16' W 003°44'2 3.6
2017-Jul-11 05:28N 47°17' W 003°43'2 3.8
2017-Jul-11 05:00N 47°19' W 003°42'2 4.0
2017-Jul-11 04:30N 47°21' W 003°43'1 1.0
2017-Jul-11 03:56N 47°22' W 003°43'2 3.7
2017-Jul-11 03:30N 47°20' W 003°42'2 3.7
2017-Jul-11 02:59N 47°18' W 003°41'2 3.9
2017-Jul-11 02:30N 47°19' W 003°44'2 4.1
2017-Jul-11 02:00N 47°19' W 003°46'2 4.0
2017-Jul-11 01:26N 47°21' W 003°49'2 3.9
2017-Jul-11 01:00N 47°22' W 003°51'1 1.8
2017-Jul-11 00:30N 47°23' W 003°52'2 3.6
2017-Jul-11 00:00N 47°23' W 003°49'1 2.7
2017-Jul-10 23:29N 47°25' W 003°50'2 4.0
2017-Jul-10 23:00N 47°24' W 003°53'10 2.7
2017-Jul-10 19:12N 47°14' W 003°51'1 3.9
2017-Jul-10 18:55N 47°14' W 003°49'16 1.4
2017-Jul-10 07:44N 47°02' W 003°36'1 4.7
2017-Jul-10 07:30N 47°03' W 003°37'1 2.7
2017-Jul-10 07:00N 47°02' W 003°39'2 3.5
2017-Jul-10 06:30N 47°01' W 003°40'2 2.9
2017-Jul-10 05:49N 47°01' W 003°37'1 3.9
2017-Jul-10 05:27N 47°02' W 003°36'5 4.2
2017-Jul-10 04:16N 47°07' W 003°38'1 4.3
2017-Jul-10 03:56N 47°09' W 003°38'3 6.4
2017-Jul-10 03:30N 47°11' W 003°37'5 9.2
2017-Jul-10 03:00N 47°15' W 003°34'  
Track history (hours):
 
Tides and Currents Weather Stations Pressure Air Temp Water Temp Dewpoint Dewpoint Depression Visibility Wind Speed Wind Dir Waves Ship Positions

F/V Oceanie

Last reported at 2017-Jul-20 02:38 UTC. Time now 2017-Jul-20 16:34 UTC.
Position N 47°23' W 003°26'.

Length 16 m.

Type: Fishing. MMSI: 228370000.

Date/timePositionNaut miles runAvg speedWind from/ knotsBaromVisibWave heightAir tempDewpointWater temp
2017-Jul-20 02:38N 47°23' W 003°26'1 9.2
2017-Jul-20 02:30N 47°25' W 003°25'4 9.1
2017-Jul-20 02:00N 47°29' W 003°24'5 8.9
2017-Jul-20 01:30N 47°34' W 003°23'4 8.9
2017-Jul-20 01:00N 47°38' W 003°22'4 8.8
2017-Jul-20 00:30N 47°42' W 003°22'1 2.5
2017-Jul-20 00:00N 47°44' W 003°22'3 5.2
2017-Jul-19 23:30N 47°41' W 003°22'4 8.6
2017-Jul-19 23:00N 47°37' W 003°22'4 8.3
2017-Jul-19 22:30N 47°33' W 003°23'5 8.8
2017-Jul-19 21:59N 47°28' W 003°24'25 1.2
2017-Jul-19 01:42N 47°03' W 003°27'1 3.9
2017-Jul-19 01:20N 47°04' W 003°29'1 4.0
2017-Jul-19 00:59N 47°04' W 003°31'2 3.9
2017-Jul-19 00:23N 47°05' W 003°34'2 4.2
2017-Jul-18 23:59N 47°07' W 003°35'2 3.2
2017-Jul-18 23:30N 47°08' W 003°37'2 3.4
2017-Jul-18 23:00N 47°09' W 003°38'3 3.7
2017-Jul-18 22:15N 47°12' W 003°38'1 3.8
2017-Jul-18 21:57N 47°13' W 003°38'2 3.8
2017-Jul-18 21:30N 47°15' W 003°39'3 3.8
2017-Jul-18 20:40N 47°18' W 003°39'1 4.4
2017-Jul-18 20:22N 47°19' W 003°39'4 8.0
2017-Jul-18 19:54N 47°22' W 003°35'4 8.7
2017-Jul-18 19:24N 47°26' W 003°32'4 8.5
2017-Jul-18 18:57N 47°29' W 003°29'4 8.9
2017-Jul-18 18:30N 47°33' W 003°25'4 8.6
2017-Jul-18 18:00N 47°36' W 003°23'4 8.6
2017-Jul-18 17:30N 47°41' W 003°22'3 6.2
2017-Jul-18 17:00N 47°44' W 003°22'0 0.0
2017-Jul-18 16:30N 47°44' W 003°22'0 0.3
2017-Jul-18 16:00N 47°44' W 003°22'0 0.0
2017-Jul-18 15:30N 47°44' W 003°22'  
2017-Jul-12 01:29N 47°44' W 003°22'0 0.0
2017-Jul-12 01:00N 47°44' W 003°22'0 0.0
2017-Jul-12 00:30N 47°44' W 003°22'1 1.6
2017-Jul-12 00:00N 47°43' W 003°22'4 9.0
2017-Jul-11 23:30N 47°38' W 003°22'4 8.3
2017-Jul-11 23:00N 47°34' W 003°24'4 8.2
2017-Jul-11 22:30N 47°31' W 003°27'4 8.4
2017-Jul-11 22:00N 47°28' W 003°31'4 8.4
2017-Jul-11 21:30N 47°24' W 003°34'4 8.3
2017-Jul-11 21:00N 47°20' W 003°37'2 2.9
2017-Jul-11 20:27N 47°19' W 003°37'1 2.9
2017-Jul-11 20:00N 47°18' W 003°36'2 2.8
2017-Jul-11 19:20N 47°16' W 003°36'1 3.4
2017-Jul-11 19:00N 47°16' W 003°35'2 3.3
2017-Jul-11 18:30N 47°18' W 003°35'2 3.8
2017-Jul-11 18:00N 47°19' W 003°38'2 3.2
2017-Jul-11 17:30N 47°19' W 003°40'1 2.2
2017-Jul-11 16:59N 47°19' W 003°42'2 4.0
2017-Jul-11 16:29N 47°21' W 003°43'1 2.7
2017-Jul-11 15:59N 47°20' W 003°42'2 3.6
2017-Jul-11 15:27N 47°18' W 003°41'2 4.1
2017-Jul-11 14:59N 47°17' W 003°43'3 4.3
2017-Jul-11 14:21N 47°16' W 003°47'1 1.5
2017-Jul-11 14:00N 47°15' W 003°47'2 3.0
2017-Jul-11 13:27N 47°17' W 003°46'2 3.5
2017-Jul-11 12:59N 47°18' W 003°48'3 2.3
2017-Jul-11 11:48N 47°16' W 003°51'1 3.7
2017-Jul-11 11:30N 47°15' W 003°49'2 3.6
2017-Jul-11 10:58N 47°15' W 003°46'4 2.8
2017-Jul-11 09:42N 47°12' W 003°44'1 3.8
2017-Jul-11 09:20N 47°13' W 003°42'1 3.4
2017-Jul-11 08:58N 47°14' W 003°40'2 3.7
2017-Jul-11 08:30N 47°15' W 003°42'2 1.2
2017-Jul-11 06:27N 47°15' W 003°46'2 3.4
2017-Jul-11 06:00N 47°16' W 003°44'2 3.6
2017-Jul-11 05:28N 47°17' W 003°43'2 3.8
2017-Jul-11 05:00N 47°19' W 003°42'2 4.0
2017-Jul-11 04:30N 47°21' W 003°43'1 1.0
2017-Jul-11 03:56N 47°22' W 003°43'2 3.7
2017-Jul-11 03:30N 47°20' W 003°42'2 3.7
2017-Jul-11 02:59N 47°18' W 003°41'2 3.9
2017-Jul-11 02:30N 47°19' W 003°44'2 4.1
2017-Jul-11 02:00N 47°19' W 003°46'2 4.0
2017-Jul-11 01:26N 47°21' W 003°49'2 3.9
2017-Jul-11 01:00N 47°22' W 003°51'1 1.8
2017-Jul-11 00:30N 47°23' W 003°52'2 3.6
2017-Jul-11 00:00N 47°23' W 003°49'1 2.7
2017-Jul-10 23:29N 47°25' W 003°50'2 4.0
2017-Jul-10 23:00N 47°24' W 003°53'10 2.7
2017-Jul-10 19:12N 47°14' W 003°51'1 3.9
2017-Jul-10 18:55N 47°14' W 003°49'16 1.4
2017-Jul-10 07:44N 47°02' W 003°36'1 4.7
2017-Jul-10 07:30N 47°03' W 003°37'1 2.7
2017-Jul-10 07:00N 47°02' W 003°39'2 3.5
2017-Jul-10 06:30N 47°01' W 003°40'2 2.9
2017-Jul-10 05:49N 47°01' W 003°37'1 3.9
2017-Jul-10 05:27N 47°02' W 003°36'5 4.2
2017-Jul-10 04:16N 47°07' W 003°38'1 4.3
2017-Jul-10 03:56N 47°09' W 003°38'3 6.4
2017-Jul-10 03:30N 47°11' W 003°37'5 9.2
2017-Jul-10 03:00N 47°15' W 003°34'  

Dump ship's entire track history